sensor_id;sensor_type;location;lat;lon;timestamp;P1;durP1;ratioP1;P2;durP2;ratioP2
18754;SDS011;35061;47.664;9.166;2023-03-31T00:01:00;6.22;;;3.75;;
18754;SDS011;35061;47.664;9.166;2023-03-31T00:03:31;6.47;;;3.75;;
18754;SDS011;35061;47.664;9.166;2023-03-31T00:06:00;6.18;;;4.30;;
18754;SDS011;35061;47.664;9.166;2023-03-31T00:08:29;5.03;;;4.10;;
18754;SDS011;35061;47.664;9.166;2023-03-31T00:11:03;6.15;;;3.85;;
18754;SDS011;35061;47.664;9.166;2023-03-31T00:13:33;4.68;;;3.87;;
18754;SDS011;35061;47.664;9.166;2023-03-31T00:16:03;4.50;;;3.45;;
18754;SDS011;35061;47.664;9.166;2023-03-31T00:18:34;4.05;;;3.67;;
18754;SDS011;35061;47.664;9.166;2023-03-31T00:21:07;5.50;;;3.70;;
18754;SDS011;35061;47.664;9.166;2023-03-31T00:23:41;5.22;;;4.32;;
18754;SDS011;35061;47.664;9.166;2023-03-31T00:26:08;6.05;;;3.83;;
18754;SDS011;35061;47.664;9.166;2023-03-31T00:28:36;6.22;;;3.85;;
18754;SDS011;35061;47.664;9.166;2023-03-31T00:31:04;8.00;;;3.62;;
18754;SDS011;35061;47.664;9.166;2023-03-31T00:33:32;6.12;;;3.58;;
18754;SDS011;35061;47.664;9.166;2023-03-31T00:36:00;5.50;;;3.58;;
18754;SDS011;35061;47.664;9.166;2023-03-31T00:38:33;5.55;;;3.28;;
18754;SDS011;35061;47.664;9.166;2023-03-31T00:41:01;4.93;;;3.58;;
18754;SDS011;35061;47.664;9.166;2023-03-31T00:43:32;6.95;;;3.40;;
18754;SDS011;35061;47.664;9.166;2023-03-31T00:46:06;4.95;;;3.12;;
18754;SDS011;35061;47.664;9.166;2023-03-31T00:48:48;4.90;;;3.58;;
18754;SDS011;35061;47.664;9.166;2023-03-31T00:51:18;5.45;;;3.17;;
18754;SDS011;35061;47.664;9.166;2023-03-31T00:53:50;5.68;;;3.47;;
18754;SDS011;35061;47.664;9.166;2023-03-31T00:56:24;4.05;;;3.47;;
18754;SDS011;35061;47.664;9.166;2023-03-31T00:58:55;5.70;;;3.62;;
18754;SDS011;35061;47.664;9.166;2023-03-31T01:01:30;7.20;;;3.33;;
18754;SDS011;35061;47.664;9.166;2023-03-31T01:03:58;4.50;;;3.47;;
18754;SDS011;35061;47.664;9.166;2023-03-31T01:06:26;4.37;;;3.47;;
18754;SDS011;35061;47.664;9.166;2023-03-31T01:08:57;5.45;;;3.80;;
18754;SDS011;35061;47.664;9.166;2023-03-31T01:11:26;5.70;;;3.70;;
18754;SDS011;35061;47.664;9.166;2023-03-31T01:13:57;4.97;;;3.58;;
18754;SDS011;35061;47.664;9.166;2023-03-31T01:16:25;6.32;;;4.40;;
18754;SDS011;35061;47.664;9.166;2023-03-31T01:18:53;5.18;;;3.80;;
18754;SDS011;35061;47.664;9.166;2023-03-31T01:24:35;5.97;;;4.32;;
18754;SDS011;35061;47.664;9.166;2023-03-31T01:33:46;4.97;;;3.78;;
18754;SDS011;35061;47.664;9.166;2023-03-31T01:47:56;5.93;;;3.92;;
18754;SDS011;35061;47.664;9.166;2023-03-31T01:50:34;6.78;;;3.65;;
18754;SDS011;35061;47.664;9.166;2023-03-31T01:53:15;6.30;;;3.78;;
18754;SDS011;35061;47.664;9.166;2023-03-31T01:56:34;5.87;;;3.80;;
18754;SDS011;35061;47.664;9.166;2023-03-31T01:59:10;6.10;;;3.75;;
18754;SDS011;35061;47.664;9.166;2023-03-31T02:04:10;4.55;;;3.10;;
18754;SDS011;35061;47.664;9.166;2023-03-31T02:06:45;7.00;;;4.20;;
18754;SDS011;35061;47.664;9.166;2023-03-31T02:09:20;8.75;;;3.80;;
18754;SDS011;35061;47.664;9.166;2023-03-31T02:11:53;4.25;;;3.60;;
18754;SDS011;35061;47.664;9.166;2023-03-31T02:14:25;6.53;;;3.87;;
18754;SDS011;35061;47.664;9.166;2023-03-31T02:16:56;10.35;;;3.15;;
18754;SDS011;35061;47.664;9.166;2023-03-31T02:19:26;5.87;;;3.45;;
18754;SDS011;35061;47.664;9.166;2023-03-31T02:21:58;5.85;;;3.97;;
18754;SDS011;35061;47.664;9.166;2023-03-31T02:24:28;6.18;;;3.20;;
18754;SDS011;35061;47.664;9.166;2023-03-31T02:27:03;5.93;;;3.62;;
18754;SDS011;35061;47.664;9.166;2023-03-31T02:29:38;5.50;;;4.10;;
18754;SDS011;35061;47.664;9.166;2023-03-31T02:34:49;6.20;;;3.50;;
18754;SDS011;35061;47.664;9.166;2023-03-31T02:37:18;5.03;;;3.85;;
18754;SDS011;35061;47.664;9.166;2023-03-31T02:39:46;8.10;;;3.90;;
18754;SDS011;35061;47.664;9.166;2023-03-31T02:42:17;6.22;;;3.72;;
18754;SDS011;35061;47.664;9.166;2023-03-31T02:44:46;6.28;;;3.92;;
18754;SDS011;35061;47.664;9.166;2023-03-31T02:47:14;6.90;;;3.85;;
18754;SDS011;35061;47.664;9.166;2023-03-31T02:49:47;7.57;;;3.28;;
18754;SDS011;35061;47.664;9.166;2023-03-31T02:55:51;5.57;;;3.78;;
18754;SDS011;35061;47.664;9.166;2023-03-31T03:01:42;6.70;;;3.80;;
18754;SDS011;35061;47.664;9.166;2023-03-31T03:04:20;7.72;;;4.50;;
18754;SDS011;35061;47.664;9.166;2023-03-31T03:07:07;9.77;;;3.90;;
18754;SDS011;35061;47.664;9.166;2023-03-31T03:15:13;5.35;;;3.90;;
18754;SDS011;35061;47.664;9.166;2023-03-31T03:17:48;7.72;;;3.65;;
18754;SDS011;35061;47.664;9.166;2023-03-31T03:20:18;5.68;;;3.97;;
18754;SDS011;35061;47.664;9.166;2023-03-31T03:22:47;6.97;;;4.78;;
18754;SDS011;35061;47.664;9.166;2023-03-31T03:25:15;6.97;;;3.80;;
18754;SDS011;35061;47.664;9.166;2023-03-31T03:27:45;7.62;;;4.37;;
18754;SDS011;35061;47.664;9.166;2023-03-31T03:30:13;5.80;;;3.78;;
18754;SDS011;35061;47.664;9.166;2023-03-31T03:32:41;7.68;;;4.00;;
18754;SDS011;35061;47.664;9.166;2023-03-31T03:35:10;6.80;;;4.40;;
18754;SDS011;35061;47.664;9.166;2023-03-31T03:37:38;7.43;;;4.20;;
18754;SDS011;35061;47.664;9.166;2023-03-31T03:40:06;4.55;;;4.10;;
18754;SDS011;35061;47.664;9.166;2023-03-31T03:42:35;6.53;;;4.70;;
18754;SDS011;35061;47.664;9.166;2023-03-31T03:45:05;6.95;;;3.87;;
18754;SDS011;35061;47.664;9.166;2023-03-31T03:47:34;6.70;;;3.92;;
18754;SDS011;35061;47.664;9.166;2023-03-31T03:50:03;8.73;;;4.28;;
18754;SDS011;35061;47.664;9.166;2023-03-31T03:52:31;5.97;;;3.72;;
18754;SDS011;35061;47.664;9.166;2023-03-31T03:54:59;4.80;;;3.65;;
18754;SDS011;35061;47.664;9.166;2023-03-31T03:57:28;5.90;;;4.10;;
18754;SDS011;35061;47.664;9.166;2023-03-31T03:59:56;6.28;;;4.03;;
18754;SDS011;35061;47.664;9.166;2023-03-31T04:02:24;4.97;;;3.80;;
18754;SDS011;35061;47.664;9.166;2023-03-31T04:04:55;6.28;;;4.25;;
18754;SDS011;35061;47.664;9.166;2023-03-31T04:07:23;7.12;;;4.03;;
18754;SDS011;35061;47.664;9.166;2023-03-31T04:09:50;5.78;;;4.62;;
18754;SDS011;35061;47.664;9.166;2023-03-31T04:12:18;5.20;;;3.37;;
18754;SDS011;35061;47.664;9.166;2023-03-31T04:14:46;8.07;;;3.85;;
18754;SDS011;35061;47.664;9.166;2023-03-31T04:17:14;7.60;;;4.18;;
18754;SDS011;35061;47.664;9.166;2023-03-31T04:19:42;7.07;;;3.72;;
18754;SDS011;35061;47.664;9.166;2023-03-31T04:22:10;7.43;;;4.05;;
18754;SDS011;35061;47.664;9.166;2023-03-31T04:24:41;6.57;;;4.60;;
18754;SDS011;35061;47.664;9.166;2023-03-31T04:27:12;6.40;;;3.85;;
18754;SDS011;35061;47.664;9.166;2023-03-31T04:29:43;7.50;;;4.53;;
18754;SDS011;35061;47.664;9.166;2023-03-31T04:32:14;7.12;;;4.22;;
18754;SDS011;35061;47.664;9.166;2023-03-31T04:34:48;5.75;;;4.60;;
18754;SDS011;35061;47.664;9.166;2023-03-31T04:37:17;7.07;;;4.32;;
18754;SDS011;35061;47.664;9.166;2023-03-31T04:39:45;8.27;;;4.62;;
18754;SDS011;35061;47.664;9.166;2023-03-31T04:42:13;5.00;;;3.45;;
18754;SDS011;35061;47.664;9.166;2023-03-31T04:44:41;8.15;;;4.50;;
18754;SDS011;35061;47.664;9.166;2023-03-31T04:47:09;10.93;;;4.75;;
18754;SDS011;35061;47.664;9.166;2023-03-31T04:49:37;5.37;;;4.37;;
18754;SDS011;35061;47.664;9.166;2023-03-31T04:52:05;7.68;;;4.60;;
18754;SDS011;35061;47.664;9.166;2023-03-31T04:54:33;6.40;;;5.03;;
18754;SDS011;35061;47.664;9.166;2023-03-31T04:57:00;6.10;;;4.70;;
18754;SDS011;35061;47.664;9.166;2023-03-31T04:59:29;8.25;;;4.50;;
18754;SDS011;35061;47.664;9.166;2023-03-31T05:01:56;6.32;;;5.15;;
18754;SDS011;35061;47.664;9.166;2023-03-31T05:04:24;7.55;;;4.47;;
18754;SDS011;35061;47.664;9.166;2023-03-31T05:06:52;5.87;;;3.80;;
18754;SDS011;35061;47.664;9.166;2023-03-31T05:09:20;6.47;;;4.25;;
18754;SDS011;35061;47.664;9.166;2023-03-31T05:11:49;6.75;;;3.97;;
18754;SDS011;35061;47.664;9.166;2023-03-31T05:14:17;8.82;;;4.35;;
18754;SDS011;35061;47.664;9.166;2023-03-31T05:16:45;7.90;;;4.53;;
18754;SDS011;35061;47.664;9.166;2023-03-31T05:19:13;4.20;;;3.62;;
18754;SDS011;35061;47.664;9.166;2023-03-31T05:21:41;5.18;;;3.83;;
18754;SDS011;35061;47.664;9.166;2023-03-31T05:24:09;5.93;;;3.62;;
18754;SDS011;35061;47.664;9.166;2023-03-31T05:26:37;6.03;;;4.10;;
18754;SDS011;35061;47.664;9.166;2023-03-31T05:29:07;4.62;;;3.80;;
18754;SDS011;35061;47.664;9.166;2023-03-31T05:31:35;6.00;;;3.72;;
18754;SDS011;35061;47.664;9.166;2023-03-31T05:34:03;4.95;;;3.80;;
18754;SDS011;35061;47.664;9.166;2023-03-31T05:36:31;5.15;;;3.55;;
18754;SDS011;35061;47.664;9.166;2023-03-31T05:38:59;3.92;;;3.55;;
18754;SDS011;35061;47.664;9.166;2023-03-31T05:41:27;5.25;;;3.53;;
18754;SDS011;35061;47.664;9.166;2023-03-31T05:43:55;4.93;;;3.67;;
18754;SDS011;35061;47.664;9.166;2023-03-31T05:46:23;4.95;;;3.45;;
18754;SDS011;35061;47.664;9.166;2023-03-31T05:48:51;4.43;;;3.78;;
18754;SDS011;35061;47.664;9.166;2023-03-31T05:51:19;5.12;;;3.87;;
18754;SDS011;35061;47.664;9.166;2023-03-31T05:53:47;4.37;;;3.72;;
18754;SDS011;35061;47.664;9.166;2023-03-31T05:56:15;6.18;;;3.85;;
18754;SDS011;35061;47.664;9.166;2023-03-31T05:58:43;7.78;;;4.35;;
18754;SDS011;35061;47.664;9.166;2023-03-31T06:01:12;5.85;;;4.10;;
18754;SDS011;35061;47.664;9.166;2023-03-31T06:03:46;7.95;;;4.60;;
18754;SDS011;35061;47.664;9.166;2023-03-31T06:06:14;8.13;;;4.40;;
18754;SDS011;35061;47.664;9.166;2023-03-31T06:08:45;5.90;;;4.22;;
18754;SDS011;35061;47.664;9.166;2023-03-31T06:11:15;9.15;;;4.75;;
18754;SDS011;35061;47.664;9.166;2023-03-31T06:13:46;14.27;;;5.05;;
18754;SDS011;35061;47.664;9.166;2023-03-31T06:16:15;8.23;;;4.47;;
18754;SDS011;35061;47.664;9.166;2023-03-31T06:18:44;6.28;;;4.85;;
18754;SDS011;35061;47.664;9.166;2023-03-31T06:21:16;7.93;;;4.95;;
18754;SDS011;35061;47.664;9.166;2023-03-31T06:23:45;6.50;;;4.75;;
18754;SDS011;35061;47.664;9.166;2023-03-31T06:26:14;9.60;;;5.32;;
18754;SDS011;35061;47.664;9.166;2023-03-31T06:28:44;6.32;;;4.72;;
18754;SDS011;35061;47.664;9.166;2023-03-31T06:31:14;9.05;;;5.32;;
18754;SDS011;35061;47.664;9.166;2023-03-31T06:33:43;7.35;;;5.30;;
18754;SDS011;35061;47.664;9.166;2023-03-31T06:36:13;8.05;;;5.00;;
18754;SDS011;35061;47.664;9.166;2023-03-31T06:38:43;8.38;;;5.40;;
18754;SDS011;35061;47.664;9.166;2023-03-31T06:41:12;9.10;;;5.75;;
18754;SDS011;35061;47.664;9.166;2023-03-31T06:43:42;9.10;;;6.05;;
18754;SDS011;35061;47.664;9.166;2023-03-31T06:46:10;8.98;;;6.28;;
18754;SDS011;35061;47.664;9.166;2023-03-31T06:48:38;7.32;;;5.47;;
18754;SDS011;35061;47.664;9.166;2023-03-31T06:51:06;9.07;;;5.75;;
18754;SDS011;35061;47.664;9.166;2023-03-31T06:53:35;7.57;;;5.15;;
18754;SDS011;35061;47.664;9.166;2023-03-31T06:56:03;7.28;;;5.37;;
18754;SDS011;35061;47.664;9.166;2023-03-31T06:58:33;6.97;;;5.53;;
18754;SDS011;35061;47.664;9.166;2023-03-31T07:01:02;8.80;;;5.82;;
18754;SDS011;35061;47.664;9.166;2023-03-31T07:03:32;5.97;;;4.22;;
18754;SDS011;35061;47.664;9.166;2023-03-31T07:06:00;8.00;;;4.20;;
18754;SDS011;35061;47.664;9.166;2023-03-31T07:08:28;7.95;;;5.28;;
18754;SDS011;35061;47.664;9.166;2023-03-31T07:10:56;6.15;;;3.60;;
18754;SDS011;35061;47.664;9.166;2023-03-31T07:13:26;5.68;;;3.80;;
18754;SDS011;35061;47.664;9.166;2023-03-31T07:15:54;4.60;;;3.92;;
18754;SDS011;35061;47.664;9.166;2023-03-31T07:18:23;5.78;;;4.10;;
18754;SDS011;35061;47.664;9.166;2023-03-31T07:21:00;4.12;;;3.67;;
18754;SDS011;35061;47.664;9.166;2023-03-31T07:23:32;5.43;;;3.03;;
18754;SDS011;35061;47.664;9.166;2023-03-31T07:26:00;3.70;;;3.37;;
18754;SDS011;35061;47.664;9.166;2023-03-31T07:28:29;5.55;;;3.08;;
18754;SDS011;35061;47.664;9.166;2023-03-31T07:30:57;6.10;;;3.08;;
18754;SDS011;35061;47.664;9.166;2023-03-31T07:33:25;11.82;;;4.00;;
18754;SDS011;35061;47.664;9.166;2023-03-31T07:35:53;6.65;;;3.40;;
18754;SDS011;35061;47.664;9.166;2023-03-31T07:38:36;5.70;;;3.33;;
18754;SDS011;35061;47.664;9.166;2023-03-31T07:41:04;6.87;;;3.67;;
18754;SDS011;35061;47.664;9.166;2023-03-31T07:43:35;4.95;;;2.58;;
18754;SDS011;35061;47.664;9.166;2023-03-31T07:46:03;3.00;;;2.55;;
18754;SDS011;35061;47.664;9.166;2023-03-31T07:48:32;5.07;;;2.67;;
18754;SDS011;35061;47.664;9.166;2023-03-31T07:51:01;5.10;;;2.78;;
18754;SDS011;35061;47.664;9.166;2023-03-31T07:53:29;2.97;;;2.53;;
18754;SDS011;35061;47.664;9.166;2023-03-31T07:55:57;3.78;;;2.60;;
18754;SDS011;35061;47.664;9.166;2023-03-31T07:58:25;4.87;;;2.55;;
18754;SDS011;35061;47.664;9.166;2023-03-31T08:00:53;5.62;;;2.92;;
18754;SDS011;35061;47.664;9.166;2023-03-31T08:03:21;4.47;;;2.47;;
18754;SDS011;35061;47.664;9.166;2023-03-31T08:05:52;3.85;;;2.30;;
18754;SDS011;35061;47.664;9.166;2023-03-31T08:08:20;6.10;;;2.33;;
18754;SDS011;35061;47.664;9.166;2023-03-31T08:10:48;3.22;;;1.75;;
18754;SDS011;35061;47.664;9.166;2023-03-31T08:13:17;2.67;;;2.00;;
18754;SDS011;35061;47.664;9.166;2023-03-31T08:15:45;5.35;;;2.08;;
18754;SDS011;35061;47.664;9.166;2023-03-31T08:18:13;2.58;;;1.80;;
18754;SDS011;35061;47.664;9.166;2023-03-31T08:20:42;4.05;;;2.10;;
18754;SDS011;35061;47.664;9.166;2023-03-31T08:23:12;3.00;;;1.67;;
18754;SDS011;35061;47.664;9.166;2023-03-31T08:25:40;3.83;;;1.90;;
18754;SDS011;35061;47.664;9.166;2023-03-31T08:28:08;4.32;;;1.90;;
18754;SDS011;35061;47.664;9.166;2023-03-31T08:30:40;4.65;;;2.15;;
18754;SDS011;35061;47.664;9.166;2023-03-31T08:33:08;3.40;;;1.65;;
18754;SDS011;35061;47.664;9.166;2023-03-31T08:35:38;2.92;;;1.70;;
18754;SDS011;35061;47.664;9.166;2023-03-31T08:38:06;3.15;;;2.00;;
18754;SDS011;35061;47.664;9.166;2023-03-31T08:40:34;2.85;;;2.10;;
18754;SDS011;35061;47.664;9.166;2023-03-31T08:43:10;2.42;;;1.90;;
18754;SDS011;35061;47.664;9.166;2023-03-31T08:45:44;3.50;;;1.73;;
18754;SDS011;35061;47.664;9.166;2023-03-31T08:48:24;2.28;;;2.00;;
18754;SDS011;35061;47.664;9.166;2023-03-31T08:50:57;3.33;;;2.00;;
18754;SDS011;35061;47.664;9.166;2023-03-31T08:53:51;4.57;;;1.98;;
18754;SDS011;35061;47.664;9.166;2023-03-31T08:56:30;3.20;;;1.85;;
18754;SDS011;35061;47.664;9.166;2023-03-31T08:59:05;5.15;;;1.40;;
18754;SDS011;35061;47.664;9.166;2023-03-31T09:01:45;2.42;;;1.45;;
18754;SDS011;35061;47.664;9.166;2023-03-31T09:04:29;2.75;;;1.90;;
18754;SDS011;35061;47.664;9.166;2023-03-31T09:15:27;2.25;;;1.60;;
18754;SDS011;35061;47.664;9.166;2023-03-31T09:18:01;3.33;;;1.58;;
18754;SDS011;35061;47.664;9.166;2023-03-31T09:20:40;3.10;;;1.48;;
18754;SDS011;35061;47.664;9.166;2023-03-31T09:25:59;4.60;;;1.90;;
18754;SDS011;35061;47.664;9.166;2023-03-31T09:28:35;1.67;;;1.55;;
18754;SDS011;35061;47.664;9.166;2023-03-31T09:31:15;4.45;;;1.40;;
18754;SDS011;35061;47.664;9.166;2023-03-31T09:33:46;3.10;;;2.08;;
18754;SDS011;35061;47.664;9.166;2023-03-31T09:36:18;2.97;;;1.98;;
18754;SDS011;35061;47.664;9.166;2023-03-31T09:38:50;3.33;;;1.83;;
18754;SDS011;35061;47.664;9.166;2023-03-31T09:41:18;4.95;;;2.37;;
18754;SDS011;35061;47.664;9.166;2023-03-31T09:43:47;3.85;;;1.80;;
18754;SDS011;35061;47.664;9.166;2023-03-31T09:49:00;3.83;;;2.40;;
18754;SDS011;35061;47.664;9.166;2023-03-31T09:51:33;4.37;;;1.92;;
18754;SDS011;35061;47.664;9.166;2023-03-31T09:54:12;4.28;;;1.95;;
18754;SDS011;35061;47.664;9.166;2023-03-31T09:56:52;3.83;;;2.28;;
18754;SDS011;35061;47.664;9.166;2023-03-31T09:59:33;3.15;;;1.85;;
18754;SDS011;35061;47.664;9.166;2023-03-31T10:02:03;2.62;;;1.80;;
18754;SDS011;35061;47.664;9.166;2023-03-31T10:04:44;5.70;;;2.17;;
18754;SDS011;35061;47.664;9.166;2023-03-31T10:07:13;4.93;;;1.98;;
18754;SDS011;35061;47.664;9.166;2023-03-31T10:09:47;2.03;;;1.52;;
18754;SDS011;35061;47.664;9.166;2023-03-31T10:12:16;3.65;;;1.90;;
18754;SDS011;35061;47.664;9.166;2023-03-31T10:14:51;4.78;;;2.00;;
18754;SDS011;35061;47.664;9.166;2023-03-31T10:17:21;3.90;;;1.73;;
18754;SDS011;35061;47.664;9.166;2023-03-31T10:20:04;4.57;;;1.70;;
18754;SDS011;35061;47.664;9.166;2023-03-31T10:22:44;3.87;;;1.58;;
18754;SDS011;35061;47.664;9.166;2023-03-31T10:25:16;2.87;;;1.42;;
18754;SDS011;35061;47.664;9.166;2023-03-31T10:27:50;3.50;;;1.45;;
18754;SDS011;35061;47.664;9.166;2023-03-31T10:30:21;3.00;;;1.60;;
18754;SDS011;35061;47.664;9.166;2023-03-31T10:32:56;4.28;;;1.40;;
18754;SDS011;35061;47.664;9.166;2023-03-31T10:35:36;2.05;;;1.40;;
18754;SDS011;35061;47.664;9.166;2023-03-31T10:38:06;2.28;;;1.67;;
18754;SDS011;35061;47.664;9.166;2023-03-31T10:40:38;4.07;;;1.48;;
18754;SDS011;35061;47.664;9.166;2023-03-31T10:45:48;3.97;;;1.65;;
18754;SDS011;35061;47.664;9.166;2023-03-31T10:48:22;4.37;;;1.80;;
18754;SDS011;35061;47.664;9.166;2023-03-31T10:50:51;4.50;;;1.45;;
18754;SDS011;35061;47.664;9.166;2023-03-31T10:53:19;3.10;;;1.62;;
18754;SDS011;35061;47.664;9.166;2023-03-31T11:06:55;3.45;;;1.48;;
18754;SDS011;35061;47.664;9.166;2023-03-31T11:23:47;1.20;;;1.10;;
18754;SDS011;35061;47.664;9.166;2023-03-31T11:32:13;1.90;;;0.90;;
18754;SDS011;35061;47.664;9.166;2023-03-31T11:37:56;3.45;;;1.50;;
18754;SDS011;35061;47.664;9.166;2023-03-31T11:40:58;3.95;;;1.35;;
18754;SDS011;35061;47.664;9.166;2023-03-31T11:43:33;2.35;;;1.40;;
18754;SDS011;35061;47.664;9.166;2023-03-31T11:46:10;4.45;;;1.42;;
18754;SDS011;35061;47.664;9.166;2023-03-31T11:49:02;1.62;;;0.85;;
18754;SDS011;35061;47.664;9.166;2023-03-31T11:54:15;1.27;;;1.15;;
18754;SDS011;35061;47.664;9.166;2023-03-31T11:56:46;2.28;;;1.10;;
18754;SDS011;35061;47.664;9.166;2023-03-31T11:59:16;1.83;;;1.30;;
18754;SDS011;35061;47.664;9.166;2023-03-31T12:04:45;2.35;;;1.25;;
18754;SDS011;35061;47.664;9.166;2023-03-31T12:07:22;2.83;;;1.30;;
18754;SDS011;35061;47.664;9.166;2023-03-31T12:10:04;3.65;;;1.52;;
18754;SDS011;35061;47.664;9.166;2023-03-31T12:12:42;3.35;;;1.50;;
18754;SDS011;35061;47.664;9.166;2023-03-31T12:18:08;3.03;;;1.40;;
18754;SDS011;35061;47.664;9.166;2023-03-31T12:20:41;5.70;;;1.52;;
18754;SDS011;35061;47.664;9.166;2023-03-31T12:23:20;3.35;;;1.40;;
18754;SDS011;35061;47.664;9.166;2023-03-31T12:26:10;4.68;;;1.85;;
18754;SDS011;35061;47.664;9.166;2023-03-31T12:28:50;1.77;;;1.23;;
18754;SDS011;35061;47.664;9.166;2023-03-31T12:31:24;1.65;;;1.30;;
18754;SDS011;35061;47.664;9.166;2023-03-31T12:33:58;5.35;;;1.87;;
18754;SDS011;35061;47.664;9.166;2023-03-31T12:39:06;4.05;;;1.50;;
18754;SDS011;35061;47.664;9.166;2023-03-31T12:45:05;1.77;;;1.12;;
18754;SDS011;35061;47.664;9.166;2023-03-31T12:56:48;1.48;;;0.75;;
18754;SDS011;35061;47.664;9.166;2023-03-31T12:59:38;3.15;;;1.00;;
18754;SDS011;35061;47.664;9.166;2023-03-31T13:04:36;2.60;;;0.80;;
18754;SDS011;35061;47.664;9.166;2023-03-31T13:07:11;1.35;;;0.80;;
18754;SDS011;35061;47.664;9.166;2023-03-31T13:12:41;2.35;;;0.55;;
18754;SDS011;35061;47.664;9.166;2023-03-31T13:15:25;2.08;;;1.00;;
18754;SDS011;35061;47.664;9.166;2023-03-31T13:18:01;1.65;;;0.68;;
18754;SDS011;35061;47.664;9.166;2023-03-31T13:33:25;0.85;;;0.62;;
18754;SDS011;35061;47.664;9.166;2023-03-31T13:53:23;1.10;;;0.70;;
18754;SDS011;35061;47.664;9.166;2023-03-31T13:56:31;2.58;;;0.52;;
18754;SDS011;35061;47.664;9.166;2023-03-31T14:10:33;2.05;;;0.80;;
18754;SDS011;35061;47.664;9.166;2023-03-31T14:13:03;2.53;;;0.77;;
18754;SDS011;35061;47.664;9.166;2023-03-31T14:15:55;3.37;;;1.00;;
18754;SDS011;35061;47.664;9.166;2023-03-31T14:18:26;3.83;;;0.88;;
18754;SDS011;35061;47.664;9.166;2023-03-31T14:29:23;3.33;;;1.77;;
18754;SDS011;35061;47.664;9.166;2023-03-31T14:32:21;2.65;;;1.40;;
18754;SDS011;35061;47.664;9.166;2023-03-31T14:35:33;2.17;;;1.67;;
18754;SDS011;35061;47.664;9.166;2023-03-31T14:38:09;4.87;;;2.22;;
18754;SDS011;35061;47.664;9.166;2023-03-31T14:40:48;3.20;;;1.62;;
18754;SDS011;35061;47.664;9.166;2023-03-31T14:43:21;2.20;;;1.27;;
18754;SDS011;35061;47.664;9.166;2023-03-31T14:46:05;4.28;;;1.90;;
18754;SDS011;35061;47.664;9.166;2023-03-31T14:48:40;2.35;;;1.30;;
18754;SDS011;35061;47.664;9.166;2023-03-31T14:51:16;4.32;;;1.37;;
18754;SDS011;35061;47.664;9.166;2023-03-31T14:53:46;3.12;;;1.35;;
18754;SDS011;35061;47.664;9.166;2023-03-31T14:56:15;5.62;;;1.83;;
18754;SDS011;35061;47.664;9.166;2023-03-31T14:58:49;1.52;;;1.00;;
18754;SDS011;35061;47.664;9.166;2023-03-31T15:01:24;5.47;;;1.23;;
18754;SDS011;35061;47.664;9.166;2023-03-31T15:03:56;1.15;;;0.70;;
18754;SDS011;35061;47.664;9.166;2023-03-31T15:06:24;2.42;;;1.17;;
18754;SDS011;35061;47.664;9.166;2023-03-31T15:08:54;1.20;;;1.10;;
18754;SDS011;35061;47.664;9.166;2023-03-31T15:11:24;2.20;;;1.15;;
18754;SDS011;35061;47.664;9.166;2023-03-31T15:13:55;2.35;;;1.00;;
18754;SDS011;35061;47.664;9.166;2023-03-31T15:19:14;0.80;;;0.80;;
18754;SDS011;35061;47.664;9.166;2023-03-31T15:21:56;1.40;;;0.93;;
18754;SDS011;35061;47.664;9.166;2023-03-31T15:24:40;2.97;;;1.20;;
18754;SDS011;35061;47.664;9.166;2023-03-31T15:30:06;4.60;;;1.48;;
18754;SDS011;35061;47.664;9.166;2023-03-31T15:32:41;1.75;;;0.90;;
18754;SDS011;35061;47.664;9.166;2023-03-31T15:35:18;2.95;;;0.77;;
18754;SDS011;35061;47.664;9.166;2023-03-31T15:37:53;1.67;;;0.70;;
18754;SDS011;35061;47.664;9.166;2023-03-31T15:40:24;2.83;;;1.20;;
18754;SDS011;35061;47.664;9.166;2023-03-31T15:42:55;1.95;;;0.80;;
18754;SDS011;35061;47.664;9.166;2023-03-31T15:46:15;1.17;;;0.88;;
18754;SDS011;35061;47.664;9.166;2023-03-31T15:48:37;1.23;;;0.57;;
18754;SDS011;35061;47.664;9.166;2023-03-31T15:51:18;1.12;;;0.70;;
18754;SDS011;35061;47.664;9.166;2023-03-31T15:54:02;1.45;;;0.60;;
18754;SDS011;35061;47.664;9.166;2023-03-31T15:56:50;1.55;;;0.70;;
18754;SDS011;35061;47.664;9.166;2023-03-31T15:59:26;1.08;;;0.98;;
18754;SDS011;35061;47.664;9.166;2023-03-31T16:02:20;2.10;;;0.80;;
18754;SDS011;35061;47.664;9.166;2023-03-31T16:04:54;2.90;;;1.20;;
18754;SDS011;35061;47.664;9.166;2023-03-31T16:07:30;1.85;;;0.62;;
18754;SDS011;35061;47.664;9.166;2023-03-31T16:10:04;2.58;;;0.80;;
18754;SDS011;35061;47.664;9.166;2023-03-31T16:12:55;0.68;;;0.60;;
18754;SDS011;35061;47.664;9.166;2023-03-31T16:15:30;0.73;;;0.65;;
18754;SDS011;35061;47.664;9.166;2023-03-31T16:18:05;1.70;;;0.80;;
18754;SDS011;35061;47.664;9.166;2023-03-31T16:20:39;2.05;;;0.80;;
18754;SDS011;35061;47.664;9.166;2023-03-31T16:23:14;1.37;;;0.80;;
18754;SDS011;35061;47.664;9.166;2023-03-31T16:25:45;1.87;;;1.08;;
18754;SDS011;35061;47.664;9.166;2023-03-31T16:28:20;1.10;;;0.73;;
18754;SDS011;35061;47.664;9.166;2023-03-31T16:30:51;1.58;;;0.80;;
18754;SDS011;35061;47.664;9.166;2023-03-31T16:33:20;2.78;;;0.77;;
18754;SDS011;35061;47.664;9.166;2023-03-31T16:35:52;1.85;;;0.77;;
18754;SDS011;35061;47.664;9.166;2023-03-31T16:38:23;1.90;;;0.95;;
18754;SDS011;35061;47.664;9.166;2023-03-31T16:40:55;3.12;;;0.90;;
18754;SDS011;35061;47.664;9.166;2023-03-31T16:43:27;1.33;;;0.65;;
18754;SDS011;35061;47.664;9.166;2023-03-31T16:46:01;1.50;;;0.80;;
18754;SDS011;35061;47.664;9.166;2023-03-31T16:48:30;1.92;;;0.85;;
18754;SDS011;35061;47.664;9.166;2023-03-31T16:51:01;0.77;;;0.60;;
18754;SDS011;35061;47.664;9.166;2023-03-31T16:53:31;2.42;;;0.52;;
18754;SDS011;35061;47.664;9.166;2023-03-31T16:56:01;1.48;;;0.73;;
18754;SDS011;35061;47.664;9.166;2023-03-31T16:58:31;2.08;;;1.00;;
18754;SDS011;35061;47.664;9.166;2023-03-31T17:01:00;2.37;;;1.33;;
18754;SDS011;35061;47.664;9.166;2023-03-31T17:03:28;1.02;;;0.80;;
18754;SDS011;35061;47.664;9.166;2023-03-31T17:05:57;0.82;;;0.80;;
18754;SDS011;35061;47.664;9.166;2023-03-31T17:08:34;1.25;;;0.77;;
18754;SDS011;35061;47.664;9.166;2023-03-31T17:11:06;0.82;;;0.68;;
18754;SDS011;35061;47.664;9.166;2023-03-31T17:13:38;2.45;;;0.85;;
18754;SDS011;35061;47.664;9.166;2023-03-31T17:16:07;1.23;;;0.60;;
18754;SDS011;35061;47.664;9.166;2023-03-31T17:18:46;0.70;;;0.70;;
18754;SDS011;35061;47.664;9.166;2023-03-31T17:21:15;0.47;;;0.47;;
18754;SDS011;35061;47.664;9.166;2023-03-31T17:23:46;1.75;;;0.70;;
18754;SDS011;35061;47.664;9.166;2023-03-31T17:26:14;1.70;;;0.88;;
18754;SDS011;35061;47.664;9.166;2023-03-31T17:28:42;3.62;;;0.90;;
18754;SDS011;35061;47.664;9.166;2023-03-31T17:31:15;1.27;;;0.70;;
18754;SDS011;35061;47.664;9.166;2023-03-31T17:33:44;0.88;;;0.88;;
18754;SDS011;35061;47.664;9.166;2023-03-31T17:36:13;2.95;;;0.90;;
18754;SDS011;35061;47.664;9.166;2023-03-31T17:38:42;2.08;;;0.82;;
18754;SDS011;35061;47.664;9.166;2023-03-31T17:41:11;2.22;;;1.00;;
18754;SDS011;35061;47.664;9.166;2023-03-31T17:43:43;1.73;;;0.77;;
18754;SDS011;35061;47.664;9.166;2023-03-31T17:46:12;2.65;;;1.00;;
18754;SDS011;35061;47.664;9.166;2023-03-31T17:48:40;1.45;;;0.93;;
18754;SDS011;35061;47.664;9.166;2023-03-31T17:51:17;0.93;;;0.70;;
18754;SDS011;35061;47.664;9.166;2023-03-31T17:53:46;2.12;;;0.90;;
18754;SDS011;35061;47.664;9.166;2023-03-31T17:56:15;2.25;;;0.80;;
18754;SDS011;35061;47.664;9.166;2023-03-31T17:58:43;1.70;;;0.88;;
18754;SDS011;35061;47.664;9.166;2023-03-31T18:01:13;1.80;;;0.90;;
18754;SDS011;35061;47.664;9.166;2023-03-31T18:03:41;1.80;;;0.90;;
18754;SDS011;35061;47.664;9.166;2023-03-31T18:06:10;3.45;;;1.95;;
18754;SDS011;35061;47.664;9.166;2023-03-31T18:08:40;3.30;;;1.67;;
18754;SDS011;35061;47.664;9.166;2023-03-31T18:11:09;1.92;;;1.00;;
18754;SDS011;35061;47.664;9.166;2023-03-31T18:13:37;1.42;;;0.70;;